sensor_id;sensor_type;location;lat;lon;timestamp;P1;durP1;ratioP1;P2;durP2;ratioP2
51660;SDS011;37741;49.748;8.490;2023-02-02T00:01:51;6.43;;;2.25;;
51660;SDS011;37741;49.748;8.490;2023-02-02T00:04:20;5.60;;;2.58;;
51660;SDS011;37741;49.748;8.490;2023-02-02T00:06:50;10.57;;;2.25;;
51660;SDS011;37741;49.748;8.490;2023-02-02T00:09:17;13.38;;;2.67;;
51660;SDS011;37741;49.748;8.490;2023-02-02T00:11:44;8.20;;;2.58;;
51660;SDS011;37741;49.748;8.490;2023-02-02T00:14:11;6.72;;;1.92;;
51660;SDS011;37741;49.748;8.490;2023-02-02T00:16:38;10.82;;;2.15;;
51660;SDS011;37741;49.748;8.490;2023-02-02T00:19:12;9.13;;;2.28;;
51660;SDS011;37741;49.748;8.490;2023-02-02T00:21:40;9.10;;;2.10;;
51660;SDS011;37741;49.748;8.490;2023-02-02T00:24:07;7.10;;;2.30;;
51660;SDS011;37741;49.748;8.490;2023-02-02T00:26:34;10.20;;;2.47;;
51660;SDS011;37741;49.748;8.490;2023-02-02T00:29:01;8.35;;;3.22;;
51660;SDS011;37741;49.748;8.490;2023-02-02T00:31:27;7.32;;;2.20;;
51660;SDS011;37741;49.748;8.490;2023-02-02T00:33:52;6.72;;;2.25;;
51660;SDS011;37741;49.748;8.490;2023-02-02T00:36:18;9.23;;;2.78;;
51660;SDS011;37741;49.748;8.490;2023-02-02T00:38:45;9.48;;;2.42;;
51660;SDS011;37741;49.748;8.490;2023-02-02T00:41:12;8.65;;;2.15;;
51660;SDS011;37741;49.748;8.490;2023-02-02T00:43:38;5.97;;;1.85;;
51660;SDS011;37741;49.748;8.490;2023-02-02T00:46:03;10.20;;;2.83;;
51660;SDS011;37741;49.748;8.490;2023-02-02T00:48:30;6.00;;;1.73;;
51660;SDS011;37741;49.748;8.490;2023-02-02T00:50:55;5.95;;;1.67;;
51660;SDS011;37741;49.748;8.490;2023-02-02T00:53:21;7.50;;;1.90;;
51660;SDS011;37741;49.748;8.490;2023-02-02T00:55:47;5.57;;;1.90;;
51660;SDS011;37741;49.748;8.490;2023-02-02T00:58:13;11.32;;;2.15;;
51660;SDS011;37741;49.748;8.490;2023-02-02T01:00:38;8.25;;;1.90;;
51660;SDS011;37741;49.748;8.490;2023-02-02T01:03:04;9.20;;;2.60;;
51660;SDS011;37741;49.748;8.490;2023-02-02T01:05:31;9.40;;;2.20;;
51660;SDS011;37741;49.748;8.490;2023-02-02T01:07:57;5.95;;;1.80;;
51660;SDS011;37741;49.748;8.490;2023-02-02T01:10:23;7.05;;;1.85;;
51660;SDS011;37741;49.748;8.490;2023-02-02T01:12:48;7.97;;;2.05;;
51660;SDS011;37741;49.748;8.490;2023-02-02T01:15:14;14.98;;;2.75;;
51660;SDS011;37741;49.748;8.490;2023-02-02T01:17:40;10.80;;;2.13;;
51660;SDS011;37741;49.748;8.490;2023-02-02T01:20:06;10.65;;;3.33;;
51660;SDS011;37741;49.748;8.490;2023-02-02T01:22:32;6.50;;;1.90;;
51660;SDS011;37741;49.748;8.490;2023-02-02T01:24:59;8.23;;;1.98;;
51660;SDS011;37741;49.748;8.490;2023-02-02T01:27:24;10.57;;;1.73;;
51660;SDS011;37741;49.748;8.490;2023-02-02T01:29:50;7.05;;;2.20;;
51660;SDS011;37741;49.748;8.490;2023-02-02T01:32:16;10.15;;;2.25;;
51660;SDS011;37741;49.748;8.490;2023-02-02T01:34:41;5.90;;;1.58;;
51660;SDS011;37741;49.748;8.490;2023-02-02T01:37:08;10.73;;;2.42;;
51660;SDS011;37741;49.748;8.490;2023-02-02T01:39:33;11.45;;;3.38;;
51660;SDS011;37741;49.748;8.490;2023-02-02T01:41:59;6.95;;;1.58;;
51660;SDS011;37741;49.748;8.490;2023-02-02T01:47:30;10.05;;;2.35;;
51660;SDS011;37741;49.748;8.490;2023-02-02T01:50:02;7.70;;;2.15;;
51660;SDS011;37741;49.748;8.490;2023-02-02T01:52:29;8.80;;;2.15;;
51660;SDS011;37741;49.748;8.490;2023-02-02T01:54:58;7.25;;;2.03;;
51660;SDS011;37741;49.748;8.490;2023-02-02T01:57:33;13.90;;;2.47;;
51660;SDS011;37741;49.748;8.490;2023-02-02T02:00:04;8.40;;;1.88;;
51660;SDS011;37741;49.748;8.490;2023-02-02T02:02:32;6.97;;;1.60;;
51660;SDS011;37741;49.748;8.490;2023-02-02T02:04:59;7.78;;;2.17;;
51660;SDS011;37741;49.748;8.490;2023-02-02T02:07:26;5.40;;;1.58;;
51660;SDS011;37741;49.748;8.490;2023-02-02T02:09:53;7.15;;;2.08;;
51660;SDS011;37741;49.748;8.490;2023-02-02T02:12:19;8.10;;;2.35;;
51660;SDS011;37741;49.748;8.490;2023-02-02T02:14:46;6.18;;;2.00;;
51660;SDS011;37741;49.748;8.490;2023-02-02T02:26:07;6.03;;;2.05;;
51660;SDS011;37741;49.748;8.490;2023-02-02T02:34:56;11.90;;;2.40;;
51660;SDS011;37741;49.748;8.490;2023-02-02T02:40:26;10.68;;;1.80;;
51660;SDS011;37741;49.748;8.490;2023-02-02T02:43:05;8.38;;;2.80;;
51660;SDS011;37741;49.748;8.490;2023-02-02T02:45:39;8.30;;;2.17;;
51660;SDS011;37741;49.748;8.490;2023-02-02T02:48:08;5.38;;;2.15;;
51660;SDS011;37741;49.748;8.490;2023-02-02T02:50:34;7.70;;;2.15;;
51660;SDS011;37741;49.748;8.490;2023-02-02T02:53:03;11.30;;;2.28;;
51660;SDS011;37741;49.748;8.490;2023-02-02T02:55:48;8.40;;;2.00;;
51660;SDS011;37741;49.748;8.490;2023-02-02T03:06:38;8.70;;;2.28;;
51660;SDS011;37741;49.748;8.490;2023-02-02T03:09:32;7.57;;;1.83;;
51660;SDS011;37741;49.748;8.490;2023-02-02T03:12:03;9.57;;;2.38;;
51660;SDS011;37741;49.748;8.490;2023-02-02T03:14:33;5.60;;;1.92;;
51660;SDS011;37741;49.748;8.490;2023-02-02T03:16:59;6.00;;;2.13;;
51660;SDS011;37741;49.748;8.490;2023-02-02T03:19:25;7.68;;;1.70;;
51660;SDS011;37741;49.748;8.490;2023-02-02T03:21:50;6.15;;;2.05;;
51660;SDS011;37741;49.748;8.490;2023-02-02T03:24:16;11.10;;;2.50;;
51660;SDS011;37741;49.748;8.490;2023-02-02T03:26:41;7.63;;;1.80;;
51660;SDS011;37741;49.748;8.490;2023-02-02T03:29:08;6.97;;;1.90;;
51660;SDS011;37741;49.748;8.490;2023-02-02T03:31:33;5.40;;;1.88;;
51660;SDS011;37741;49.748;8.490;2023-02-02T03:33:59;9.77;;;2.13;;
51660;SDS011;37741;49.748;8.490;2023-02-02T03:36:25;8.10;;;2.85;;
51660;SDS011;37741;49.748;8.490;2023-02-02T03:38:51;8.82;;;2.25;;
51660;SDS011;37741;49.748;8.490;2023-02-02T03:41:17;8.25;;;2.03;;
51660;SDS011;37741;49.748;8.490;2023-02-02T03:43:43;8.57;;;2.95;;
51660;SDS011;37741;49.748;8.490;2023-02-02T03:46:08;7.75;;;2.13;;
51660;SDS011;37741;49.748;8.490;2023-02-02T03:48:35;8.45;;;2.35;;
51660;SDS011;37741;49.748;8.490;2023-02-02T03:51:08;7.97;;;2.03;;
51660;SDS011;37741;49.748;8.490;2023-02-02T03:53:36;7.28;;;1.90;;
51660;SDS011;37741;49.748;8.490;2023-02-02T03:56:02;6.80;;;1.70;;
51660;SDS011;37741;49.748;8.490;2023-02-02T03:58:28;6.35;;;1.70;;
51660;SDS011;37741;49.748;8.490;2023-02-02T04:00:58;7.38;;;1.90;;
51660;SDS011;37741;49.748;8.490;2023-02-02T04:03:49;5.47;;;1.95;;
51660;SDS011;37741;49.748;8.490;2023-02-02T04:06:14;7.13;;;1.88;;
51660;SDS011;37741;49.748;8.490;2023-02-02T04:08:39;7.05;;;1.65;;
51660;SDS011;37741;49.748;8.490;2023-02-02T04:11:08;5.65;;;1.58;;
51660;SDS011;37741;49.748;8.490;2023-02-02T04:13:34;5.65;;;1.83;;
51660;SDS011;37741;49.748;8.490;2023-02-02T04:16:00;7.25;;;1.60;;
51660;SDS011;37741;49.748;8.490;2023-02-02T04:18:26;7.35;;;1.98;;
51660;SDS011;37741;49.748;8.490;2023-02-02T04:20:58;5.13;;;2.20;;
51660;SDS011;37741;49.748;8.490;2023-02-02T04:23:26;7.97;;;1.90;;
51660;SDS011;37741;49.748;8.490;2023-02-02T04:25:52;9.23;;;2.53;;
51660;SDS011;37741;49.748;8.490;2023-02-02T04:28:18;9.45;;;2.17;;
51660;SDS011;37741;49.748;8.490;2023-02-02T04:30:44;9.23;;;2.72;;
51660;SDS011;37741;49.748;8.490;2023-02-02T04:33:09;13.98;;;3.00;;
51660;SDS011;37741;49.748;8.490;2023-02-02T04:35:35;9.52;;;2.33;;
51660;SDS011;37741;49.748;8.490;2023-02-02T04:38:00;7.75;;;2.00;;
51660;SDS011;37741;49.748;8.490;2023-02-02T04:40:26;6.43;;;2.35;;
51660;SDS011;37741;49.748;8.490;2023-02-02T04:42:52;7.32;;;1.50;;
51660;SDS011;37741;49.748;8.490;2023-02-02T04:45:17;6.00;;;2.03;;
51660;SDS011;37741;49.748;8.490;2023-02-02T04:47:43;12.25;;;2.58;;
51660;SDS011;37741;49.748;8.490;2023-02-02T04:50:08;6.53;;;2.13;;
51660;SDS011;37741;49.748;8.490;2023-02-02T04:52:37;6.90;;;2.08;;
51660;SDS011;37741;49.748;8.490;2023-02-02T04:55:02;10.98;;;2.42;;
51660;SDS011;37741;49.748;8.490;2023-02-02T04:57:28;5.80;;;2.55;;
51660;SDS011;37741;49.748;8.490;2023-02-02T04:59:54;7.38;;;1.95;;
51660;SDS011;37741;49.748;8.490;2023-02-02T05:02:19;10.10;;;2.97;;
51660;SDS011;37741;49.748;8.490;2023-02-02T05:04:45;5.38;;;1.58;;
51660;SDS011;37741;49.748;8.490;2023-02-02T05:07:10;8.32;;;2.17;;
51660;SDS011;37741;49.748;8.490;2023-02-02T05:09:36;6.55;;;1.60;;
51660;SDS011;37741;49.748;8.490;2023-02-02T05:12:02;8.02;;;1.95;;
51660;SDS011;37741;49.748;8.490;2023-02-02T05:14:28;5.00;;;1.67;;
51660;SDS011;37741;49.748;8.490;2023-02-02T05:16:53;6.40;;;2.45;;
51660;SDS011;37741;49.748;8.490;2023-02-02T05:19:19;6.68;;;1.63;;
51660;SDS011;37741;49.748;8.490;2023-02-02T05:21:45;8.32;;;1.85;;
51660;SDS011;37741;49.748;8.490;2023-02-02T05:24:12;6.60;;;1.83;;
51660;SDS011;37741;49.748;8.490;2023-02-02T05:26:38;8.45;;;2.50;;
51660;SDS011;37741;49.748;8.490;2023-02-02T05:29:04;7.70;;;1.63;;
51660;SDS011;37741;49.748;8.490;2023-02-02T05:31:30;7.07;;;1.85;;
51660;SDS011;37741;49.748;8.490;2023-02-02T05:33:57;8.95;;;1.80;;
51660;SDS011;37741;49.748;8.490;2023-02-02T05:36:23;9.95;;;1.63;;
51660;SDS011;37741;49.748;8.490;2023-02-02T05:38:49;7.25;;;1.95;;
51660;SDS011;37741;49.748;8.490;2023-02-02T05:41:14;7.95;;;1.70;;
51660;SDS011;37741;49.748;8.490;2023-02-02T05:43:40;5.70;;;1.65;;
51660;SDS011;37741;49.748;8.490;2023-02-02T05:46:06;7.28;;;2.15;;
51660;SDS011;37741;49.748;8.490;2023-02-02T05:48:34;4.82;;;1.50;;
51660;SDS011;37741;49.748;8.490;2023-02-02T05:51:02;5.57;;;1.48;;
51660;SDS011;37741;49.748;8.490;2023-02-02T05:53:40;8.05;;;2.67;;
51660;SDS011;37741;49.748;8.490;2023-02-02T05:56:08;6.40;;;1.98;;
51660;SDS011;37741;49.748;8.490;2023-02-02T05:58:41;5.57;;;2.35;;
51660;SDS011;37741;49.748;8.490;2023-02-02T06:01:08;8.35;;;2.35;;
51660;SDS011;37741;49.748;8.490;2023-02-02T06:03:34;13.77;;;2.90;;
51660;SDS011;37741;49.748;8.490;2023-02-02T06:06:00;6.75;;;2.10;;
51660;SDS011;37741;49.748;8.490;2023-02-02T06:08:25;5.95;;;1.80;;
51660;SDS011;37741;49.748;8.490;2023-02-02T06:10:51;7.18;;;1.63;;
51660;SDS011;37741;49.748;8.490;2023-02-02T06:13:16;8.20;;;1.90;;
51660;SDS011;37741;49.748;8.490;2023-02-02T06:15:42;9.48;;;2.17;;
51660;SDS011;37741;49.748;8.490;2023-02-02T06:18:08;9.75;;;1.80;;
51660;SDS011;37741;49.748;8.490;2023-02-02T06:20:34;7.80;;;2.30;;
51660;SDS011;37741;49.748;8.490;2023-02-02T06:23:00;9.60;;;1.90;;
51660;SDS011;37741;49.748;8.490;2023-02-02T06:25:26;8.30;;;2.45;;
51660;SDS011;37741;49.748;8.490;2023-02-02T06:27:55;6.55;;;2.25;;
51660;SDS011;37741;49.748;8.490;2023-02-02T06:30:22;7.13;;;2.15;;
51660;SDS011;37741;49.748;8.490;2023-02-02T06:32:47;5.70;;;1.58;;
51660;SDS011;37741;49.748;8.490;2023-02-02T06:35:13;2.80;;;1.42;;
51660;SDS011;37741;49.748;8.490;2023-02-02T06:37:39;8.65;;;1.88;;
51660;SDS011;37741;49.748;8.490;2023-02-02T06:40:06;7.90;;;1.52;;
51660;SDS011;37741;49.748;8.490;2023-02-02T06:42:33;6.95;;;1.80;;
51660;SDS011;37741;49.748;8.490;2023-02-02T06:44:58;8.85;;;2.10;;
51660;SDS011;37741;49.748;8.490;2023-02-02T06:47:24;7.07;;;1.98;;
51660;SDS011;37741;49.748;8.490;2023-02-02T06:49:49;9.07;;;2.38;;
51660;SDS011;37741;49.748;8.490;2023-02-02T06:52:15;6.28;;;1.63;;
51660;SDS011;37741;49.748;8.490;2023-02-02T06:54:41;8.95;;;2.38;;
51660;SDS011;37741;49.748;8.490;2023-02-02T06:57:06;6.20;;;1.65;;
51660;SDS011;37741;49.748;8.490;2023-02-02T06:59:33;11.20;;;2.30;;
51660;SDS011;37741;49.748;8.490;2023-02-02T07:01:58;8.65;;;2.20;;
51660;SDS011;37741;49.748;8.490;2023-02-02T07:04:24;12.95;;;2.83;;
51660;SDS011;37741;49.748;8.490;2023-02-02T07:06:50;6.95;;;1.95;;
51660;SDS011;37741;49.748;8.490;2023-02-02T07:09:15;6.93;;;2.13;;
51660;SDS011;37741;49.748;8.490;2023-02-02T07:11:41;6.78;;;1.70;;
51660;SDS011;37741;49.748;8.490;2023-02-02T07:14:07;8.05;;;2.70;;
51660;SDS011;37741;49.748;8.490;2023-02-02T07:16:33;10.00;;;2.20;;
51660;SDS011;37741;49.748;8.490;2023-02-02T07:18:59;10.35;;;3.13;;
51660;SDS011;37741;49.748;8.490;2023-02-02T07:21:25;11.02;;;2.35;;
51660;SDS011;37741;49.748;8.490;2023-02-02T07:23:59;6.53;;;1.90;;
51660;SDS011;37741;49.748;8.490;2023-02-02T07:26:26;7.18;;;2.45;;
51660;SDS011;37741;49.748;8.490;2023-02-02T07:28:52;7.70;;;1.80;;
51660;SDS011;37741;49.748;8.490;2023-02-02T07:31:22;9.73;;;2.38;;
51660;SDS011;37741;49.748;8.490;2023-02-02T07:33:50;8.52;;;2.15;;
51660;SDS011;37741;49.748;8.490;2023-02-02T07:36:17;9.00;;;2.50;;
51660;SDS011;37741;49.748;8.490;2023-02-02T07:38:45;8.23;;;2.42;;
51660;SDS011;37741;49.748;8.490;2023-02-02T07:41:11;8.18;;;2.13;;
51660;SDS011;37741;49.748;8.490;2023-02-02T07:43:37;10.30;;;3.28;;
51660;SDS011;37741;49.748;8.490;2023-02-02T07:46:04;8.07;;;2.78;;
51660;SDS011;37741;49.748;8.490;2023-02-02T07:48:32;7.88;;;1.88;;
51660;SDS011;37741;49.748;8.490;2023-02-02T07:50:59;8.98;;;2.35;;
51660;SDS011;37741;49.748;8.490;2023-02-02T07:53:29;12.50;;;2.63;;
51660;SDS011;37741;49.748;8.490;2023-02-02T07:56:08;7.28;;;2.38;;
51660;SDS011;37741;49.748;8.490;2023-02-02T07:58:41;6.28;;;1.73;;
51660;SDS011;37741;49.748;8.490;2023-02-02T08:01:12;5.65;;;2.10;;
51660;SDS011;37741;49.748;8.490;2023-02-02T08:03:39;6.90;;;2.38;;
51660;SDS011;37741;49.748;8.490;2023-02-02T08:06:26;8.40;;;2.38;;
51660;SDS011;37741;49.748;8.490;2023-02-02T08:08:55;5.50;;;2.33;;
51660;SDS011;37741;49.748;8.490;2023-02-02T08:11:21;6.47;;;2.10;;
51660;SDS011;37741;49.748;8.490;2023-02-02T08:13:49;9.95;;;2.08;;
51660;SDS011;37741;49.748;8.490;2023-02-02T08:16:16;7.07;;;2.13;;
51660;SDS011;37741;49.748;8.490;2023-02-02T08:18:42;6.53;;;1.80;;
51660;SDS011;37741;49.748;8.490;2023-02-02T08:21:08;8.95;;;2.08;;
51660;SDS011;37741;49.748;8.490;2023-02-02T08:23:34;6.55;;;2.25;;
51660;SDS011;37741;49.748;8.490;2023-02-02T08:26:07;6.43;;;1.77;;
51660;SDS011;37741;49.748;8.490;2023-02-02T08:28:33;7.32;;;1.80;;
51660;SDS011;37741;49.748;8.490;2023-02-02T08:31:07;9.73;;;2.55;;
51660;SDS011;37741;49.748;8.490;2023-02-02T08:33:35;8.40;;;1.95;;
51660;SDS011;37741;49.748;8.490;2023-02-02T08:36:02;6.07;;;1.35;;
51660;SDS011;37741;49.748;8.490;2023-02-02T08:38:28;6.55;;;2.13;;
51660;SDS011;37741;49.748;8.490;2023-02-02T08:40:54;7.90;;;1.65;;
51660;SDS011;37741;49.748;8.490;2023-02-02T08:43:21;7.35;;;1.70;;
51660;SDS011;37741;49.748;8.490;2023-02-02T08:45:47;7.38;;;2.00;;
51660;SDS011;37741;49.748;8.490;2023-02-02T08:48:15;9.30;;;2.38;;
51660;SDS011;37741;49.748;8.490;2023-02-02T08:50:41;5.85;;;1.90;;
51660;SDS011;37741;49.748;8.490;2023-02-02T08:53:06;5.30;;;1.45;;
51660;SDS011;37741;49.748;8.490;2023-02-02T08:55:32;3.83;;;1.23;;
51660;SDS011;37741;49.748;8.490;2023-02-02T08:57:58;7.30;;;1.77;;
51660;SDS011;37741;49.748;8.490;2023-02-02T09:00:23;7.88;;;2.58;;
51660;SDS011;37741;49.748;8.490;2023-02-02T09:02:49;6.13;;;2.22;;
51660;SDS011;37741;49.748;8.490;2023-02-02T09:05:17;9.55;;;2.20;;
51660;SDS011;37741;49.748;8.490;2023-02-02T09:07:43;5.85;;;2.03;;
51660;SDS011;37741;49.748;8.490;2023-02-02T09:10:09;6.45;;;1.55;;
51660;SDS011;37741;49.748;8.490;2023-02-02T09:12:34;5.85;;;1.77;;
51660;SDS011;37741;49.748;8.490;2023-02-02T09:15:00;9.32;;;1.92;;
51660;SDS011;37741;49.748;8.490;2023-02-02T09:17:25;5.55;;;1.40;;
51660;SDS011;37741;49.748;8.490;2023-02-02T09:19:53;8.63;;;2.25;;
51660;SDS011;37741;49.748;8.490;2023-02-02T09:22:19;9.93;;;1.75;;
51660;SDS011;37741;49.748;8.490;2023-02-02T09:24:45;4.25;;;1.52;;
51660;SDS011;37741;49.748;8.490;2023-02-02T09:27:10;7.20;;;1.80;;
51660;SDS011;37741;49.748;8.490;2023-02-02T09:29:36;7.13;;;1.38;;
51660;SDS011;37741;49.748;8.490;2023-02-02T09:32:02;4.47;;;1.27;;
51660;SDS011;37741;49.748;8.490;2023-02-02T09:34:27;6.35;;;1.70;;
51660;SDS011;37741;49.748;8.490;2023-02-02T09:36:53;5.00;;;1.20;;
51660;SDS011;37741;49.748;8.490;2023-02-02T09:39:19;5.97;;;1.73;;
51660;SDS011;37741;49.748;8.490;2023-02-02T09:50:16;3.70;;;1.25;;
51660;SDS011;37741;49.748;8.490;2023-02-02T09:55:54;5.63;;;1.23;;
51660;SDS011;37741;49.748;8.490;2023-02-02T09:58:25;5.97;;;1.30;;
51660;SDS011;37741;49.748;8.490;2023-02-02T10:03:31;6.53;;;1.75;;
51660;SDS011;37741;49.748;8.490;2023-02-02T10:14:43;4.30;;;1.20;;
51660;SDS011;37741;49.748;8.490;2023-02-02T10:19:45;9.18;;;1.80;;
51660;SDS011;37741;49.748;8.490;2023-02-02T10:22:13;4.25;;;1.08;;
51660;SDS011;37741;49.748;8.490;2023-02-02T10:24:43;6.13;;;1.50;;
51660;SDS011;37741;49.748;8.490;2023-02-02T10:27:16;3.28;;;1.27;;
51660;SDS011;37741;49.748;8.490;2023-02-02T10:29:54;7.53;;;1.65;;
51660;SDS011;37741;49.748;8.490;2023-02-02T10:32:24;5.30;;;1.50;;
51660;SDS011;37741;49.748;8.490;2023-02-02T10:38:02;2.65;;;1.00;;
51660;SDS011;37741;49.748;8.490;2023-02-02T10:40:41;5.10;;;1.20;;
51660;SDS011;37741;49.748;8.490;2023-02-02T10:46:53;7.55;;;1.80;;
51660;SDS011;37741;49.748;8.490;2023-02-02T10:52:17;6.38;;;1.08;;
51660;SDS011;37741;49.748;8.490;2023-02-02T11:00:47;7.22;;;2.22;;
51660;SDS011;37741;49.748;8.490;2023-02-02T11:03:19;5.68;;;1.25;;
51660;SDS011;37741;49.748;8.490;2023-02-02T11:05:49;6.80;;;1.50;;
51660;SDS011;37741;49.748;8.490;2023-02-02T11:08:41;5.28;;;1.38;;
51660;SDS011;37741;49.748;8.490;2023-02-02T11:13:36;5.43;;;1.50;;
51660;SDS011;37741;49.748;8.490;2023-02-02T11:18:39;3.90;;;1.38;;
51660;SDS011;37741;49.748;8.490;2023-02-02T11:23:52;5.10;;;1.80;;
51660;SDS011;37741;49.748;8.490;2023-02-02T11:26:23;4.82;;;1.02;;
51660;SDS011;37741;49.748;8.490;2023-02-02T11:28:50;6.28;;;1.95;;
51660;SDS011;37741;49.748;8.490;2023-02-02T11:34:23;3.38;;;1.08;;
51660;SDS011;37741;49.748;8.490;2023-02-02T11:36:59;5.35;;;1.40;;
51660;SDS011;37741;49.748;8.490;2023-02-02T11:39:36;5.78;;;1.00;;
51660;SDS011;37741;49.748;8.490;2023-02-02T11:42:04;6.13;;;1.40;;
51660;SDS011;37741;49.748;8.490;2023-02-02T11:44:34;5.30;;;0.98;;
51660;SDS011;37741;49.748;8.490;2023-02-02T11:47:04;5.75;;;1.13;;
51660;SDS011;37741;49.748;8.490;2023-02-02T11:49:31;6.13;;;1.45;;
51660;SDS011;37741;49.748;8.490;2023-02-02T11:52:03;5.32;;;1.33;;
51660;SDS011;37741;49.748;8.490;2023-02-02T11:54:34;2.60;;;0.88;;
51660;SDS011;37741;49.748;8.490;2023-02-02T11:57:03;5.00;;;1.50;;
51660;SDS011;37741;49.748;8.490;2023-02-02T11:59:36;6.07;;;1.48;;
51660;SDS011;37741;49.748;8.490;2023-02-02T12:04:45;4.95;;;0.98;;
51660;SDS011;37741;49.748;8.490;2023-02-02T12:07:22;4.68;;;1.05;;
51660;SDS011;37741;49.748;8.490;2023-02-02T12:09:48;6.85;;;2.00;;
51660;SDS011;37741;49.748;8.490;2023-02-02T12:12:22;6.55;;;0.98;;
51660;SDS011;37741;49.748;8.490;2023-02-02T12:15:01;4.30;;;1.00;;
51660;SDS011;37741;49.748;8.490;2023-02-02T12:20:24;2.40;;;1.00;;
51660;SDS011;37741;49.748;8.490;2023-02-02T12:23:24;3.28;;;1.15;;
51660;SDS011;37741;49.748;8.490;2023-02-02T12:43:35;3.55;;;0.75;;
51660;SDS011;37741;49.748;8.490;2023-02-02T12:49:00;2.47;;;0.98;;
51660;SDS011;37741;49.748;8.490;2023-02-02T12:54:39;2.97;;;0.90;;
51660;SDS011;37741;49.748;8.490;2023-02-02T13:03:00;4.07;;;0.73;;
51660;SDS011;37741;49.748;8.490;2023-02-02T13:05:57;4.50;;;0.80;;
51660;SDS011;37741;49.748;8.490;2023-02-02T13:11:17;2.95;;;0.85;;
51660;SDS011;37741;49.748;8.490;2023-02-02T13:14:01;2.50;;;0.60;;
51660;SDS011;37741;49.748;8.490;2023-02-02T13:16:37;2.85;;;0.98;;
51660;SDS011;37741;49.748;8.490;2023-02-02T13:19:07;6.32;;;0.93;;
51660;SDS011;37741;49.748;8.490;2023-02-02T13:21:37;3.33;;;1.27;;
51660;SDS011;37741;49.748;8.490;2023-02-02T13:24:05;1.92;;;0.60;;
51660;SDS011;37741;49.748;8.490;2023-02-02T13:26:37;2.78;;;0.75;;
51660;SDS011;37741;49.748;8.490;2023-02-02T13:31:53;2.25;;;0.82;;
51660;SDS011;37741;49.748;8.490;2023-02-02T13:42:51;3.17;;;1.05;;
51660;SDS011;37741;49.748;8.490;2023-02-02T13:48:18;4.78;;;0.90;;
51660;SDS011;37741;49.748;8.490;2023-02-02T14:02:21;3.03;;;0.77;;
51660;SDS011;37741;49.748;8.490;2023-02-02T14:05:28;2.25;;;0.57;;
51660;SDS011;37741;49.748;8.490;2023-02-02T14:10:28;2.88;;;0.77;;
51660;SDS011;37741;49.748;8.490;2023-02-02T14:13:04;1.83;;;0.80;;
51660;SDS011;37741;49.748;8.490;2023-02-02T14:15:57;3.17;;;1.33;;
51660;SDS011;37741;49.748;8.490;2023-02-02T14:34:48;3.10;;;0.77;;
51660;SDS011;37741;49.748;8.490;2023-02-02T14:48:09;2.88;;;0.90;;
51660;SDS011;37741;49.748;8.490;2023-02-02T14:50:55;3.00;;;0.70;;
51660;SDS011;37741;49.748;8.490;2023-02-02T14:53:28;5.18;;;2.10;;
51660;SDS011;37741;49.748;8.490;2023-02-02T14:58:34;2.42;;;0.77;;
51660;SDS011;37741;49.748;8.490;2023-02-02T15:01:12;4.07;;;1.00;;
51660;SDS011;37741;49.748;8.490;2023-02-02T15:03:50;1.92;;;0.65;;
51660;SDS011;37741;49.748;8.490;2023-02-02T15:06:31;3.85;;;1.00;;
51660;SDS011;37741;49.748;8.490;2023-02-02T15:19:41;3.33;;;0.88;;
51660;SDS011;37741;49.748;8.490;2023-02-02T15:22:22;3.92;;;1.20;;
51660;SDS011;37741;49.748;8.490;2023-02-02T15:24:55;5.15;;;1.45;;
51660;SDS011;37741;49.748;8.490;2023-02-02T15:27:24;3.80;;;0.90;;
51660;SDS011;37741;49.748;8.490;2023-02-02T15:29:51;4.57;;;0.98;;
51660;SDS011;37741;49.748;8.490;2023-02-02T15:32:22;4.25;;;1.80;;
51660;SDS011;37741;49.748;8.490;2023-02-02T15:34:52;2.90;;;0.90;;
51660;SDS011;37741;49.748;8.490;2023-02-02T15:37:23;2.78;;;0.90;;
51660;SDS011;37741;49.748;8.490;2023-02-02T15:39:57;5.63;;;1.00;;
51660;SDS011;37741;49.748;8.490;2023-02-02T15:42:32;4.10;;;0.93;;
51660;SDS011;37741;49.748;8.490;2023-02-02T15:50:55;4.80;;;1.40;;
51660;SDS011;37741;49.748;8.490;2023-02-02T15:53:27;3.63;;;1.17;;
51660;SDS011;37741;49.748;8.490;2023-02-02T15:56:16;2.63;;;0.75;;
51660;SDS011;37741;49.748;8.490;2023-02-02T15:58:54;2.50;;;0.73;;
51660;SDS011;37741;49.748;8.490;2023-02-02T16:01:22;5.50;;;0.90;;
51660;SDS011;37741;49.748;8.490;2023-02-02T16:04:01;4.40;;;1.02;;
51660;SDS011;37741;49.748;8.490;2023-02-02T16:06:48;4.43;;;1.00;;
51660;SDS011;37741;49.748;8.490;2023-02-02T16:09:32;5.22;;;1.67;;
51660;SDS011;37741;49.748;8.490;2023-02-02T16:12:00;5.03;;;1.20;;
51660;SDS011;37741;49.748;8.490;2023-02-02T16:14:27;3.22;;;1.55;;
51660;SDS011;37741;49.748;8.490;2023-02-02T16:16:54;4.10;;;1.50;;
51660;SDS011;37741;49.748;8.490;2023-02-02T16:19:23;4.78;;;2.38;;
51660;SDS011;37741;49.748;8.490;2023-02-02T16:22:06;2.22;;;1.00;;
51660;SDS011;37741;49.748;8.490;2023-02-02T16:24:39;3.90;;;1.17;;
51660;SDS011;37741;49.748;8.490;2023-02-02T16:27:11;3.60;;;0.80;;
51660;SDS011;37741;49.748;8.490;2023-02-02T16:29:42;4.68;;;1.10;;
51660;SDS011;37741;49.748;8.490;2023-02-02T16:34:51;3.50;;;0.63;;
51660;SDS011;37741;49.748;8.490;2023-02-02T16:37:25;4.13;;;1.15;;
51660;SDS011;37741;49.748;8.490;2023-02-02T16:39:56;5.50;;;1.10;;
51660;SDS011;37741;49.748;8.490;2023-02-02T16:42:41;3.80;;;1.05;;
51660;SDS011;37741;49.748;8.490;2023-02-02T16:45:07;2.97;;;0.95;;
51660;SDS011;37741;49.748;8.490;2023-02-02T16:48:17;3.53;;;0.80;;
51660;SDS011;37741;49.748;8.490;2023-02-02T16:53:41;3.58;;;0.82;;
51660;SDS011;37741;49.748;8.490;2023-02-02T16:56:20;2.20;;;0.80;;
51660;SDS011;37741;49.748;8.490;2023-02-02T16:58:54;3.28;;;0.93;;
51660;SDS011;37741;49.748;8.490;2023-02-02T17:04:24;3.83;;;1.00;;
51660;SDS011;37741;49.748;8.490;2023-02-02T17:06:56;4.60;;;1.33;;
51660;SDS011;37741;49.748;8.490;2023-02-02T17:12:05;7.00;;;1.23;;
51660;SDS011;37741;49.748;8.490;2023-02-02T17:17:14;3.60;;;0.90;;
51660;SDS011;37741;49.748;8.490;2023-02-02T17:19:40;2.97;;;0.90;;
51660;SDS011;37741;49.748;8.490;2023-02-02T17:22:06;4.80;;;1.05;;
51660;SDS011;37741;49.748;8.490;2023-02-02T17:24:32;4.93;;;1.10;;
51660;SDS011;37741;49.748;8.490;2023-02-02T17:26:58;5.40;;;1.15;;
51660;SDS011;37741;49.748;8.490;2023-02-02T17:29:24;5.13;;;0.90;;
51660;SDS011;37741;49.748;8.490;2023-02-02T17:31:50;3.47;;;1.20;;
51660;SDS011;37741;49.748;8.490;2023-02-02T17:34:15;3.42;;;1.00;;
51660;SDS011;37741;49.748;8.490;2023-02-02T17:36:42;4.20;;;1.10;;
51660;SDS011;37741;49.748;8.490;2023-02-02T17:39:08;3.78;;;1.48;;
51660;SDS011;37741;49.748;8.490;2023-02-02T17:41:34;2.60;;;1.00;;
51660;SDS011;37741;49.748;8.490;2023-02-02T17:44:00;4.68;;;1.25;;
51660;SDS011;37741;49.748;8.490;2023-02-02T17:46:28;3.67;;;0.98;;
51660;SDS011;37741;49.748;8.490;2023-02-02T17:48:57;4.50;;;1.20;;
51660;SDS011;37741;49.748;8.490;2023-02-02T17:51:23;4.10;;;1.45;;
51660;SDS011;37741;49.748;8.490;2023-02-02T17:53:49;6.30;;;1.30;;
51660;SDS011;37741;49.748;8.490;2023-02-02T17:56:16;3.28;;;1.23;;
51660;SDS011;37741;49.748;8.490;2023-02-02T17:58:43;4.57;;;1.30;;
51660;SDS011;37741;49.748;8.490;2023-02-02T18:01:09;3.97;;;1.17;;
51660;SDS011;37741;49.748;8.490;2023-02-02T18:03:36;4.10;;;1.38;;
51660;SDS011;37741;49.748;8.490;2023-02-02T18:06:04;3.67;;;1.10;;
51660;SDS011;37741;49.748;8.490;2023-02-02T18:08:30;3.90;;;1.50;;
51660;SDS011;37741;49.748;8.490;2023-02-02T18:10:57;6.20;;;1.88;;
51660;SDS011;37741;49.748;8.490;2023-02-02T18:13:23;6.00;;;1.40;;
51660;SDS011;37741;49.748;8.490;2023-02-02T18:15:50;2.95;;;1.35;;
51660;SDS011;37741;49.748;8.490;2023-02-02T18:18:17;7.88;;;1.30;;
51660;SDS011;37741;49.748;8.490;2023-02-02T18:20:43;4.43;;;1.40;;
51660;SDS011;37741;49.748;8.490;2023-02-02T18:23:09;5.82;;;1.38;;
51660;SDS011;37741;49.748;8.490;2023-02-02T18:25:35;4.25;;;1.40;;